Pagina principale
METAR-TAF:

METAR-TAF

Aeroporti :

Passo Rolle, Italia

latitudine: 46-18N, longitudine: 011-47E, altezza: 2004 m

Osservazione

Il bollettino è stato emesso 7 ore e 19 minuti fa, alle 15:55 UTC
Vento 9 kt da est/sud-est
Temperature -4°C
Umidità 93%
Pressione 1002 hPa
Visibilità: 0050 m
neve debole, nebbia che ghiaccia

METAR: LIVR 261555Z 12009KT 0050 -SN FZFG VV/// M04/M05 Q1002 RMK MON INVIS VIS MIN 0050

Ora: 00:14 (23:14 UTC)


TAF: mancante

Osservazioni e previsioni meteorologiche di più di 4000 aeroporti (messaggi METAR e TAF).

Le stazioni disponibili sono rappresentate dai dischi gialli e rossi sulla carta.

Puntare il mouse per vedere il nome della stazione.

Clicca sopra per visualizzare le osservazioni e previsioni meteorologiche.

Per cambiare la mappa : fare clic sui pulsanti verdi con una croce nera per ingrandire, il pulsante verde con un trattino per diminuire, o sulla freccia verde per le mappe adiacenti.


METAR-TAF: